createdAt,value
2019-02-24T00:01:04.174Z,38.43
2019-02-24T00:03:33.189Z,35.50
2019-02-24T00:06:02.304Z,33.97
2019-02-24T00:08:31.252Z,34.23
2019-02-24T00:11:00.246Z,30.60
2019-02-24T00:13:29.219Z,30.77
2019-02-24T00:15:58.331Z,34.63
2019-02-24T00:18:27.296Z,38.10
2019-02-24T00:20:56.214Z,34.47
2019-02-24T00:23:25.261Z,38.63
2019-02-24T00:25:54.199Z,38.60
2019-02-24T00:28:23.160Z,47.10
2019-02-24T00:30:52.182Z,42.17
2019-02-24T00:33:21.137Z,42.80
2019-02-24T00:35:50.190Z,40.30
2019-02-24T00:38:20.748Z,39.63
2019-02-24T00:40:49.932Z,41.47
2019-02-24T00:43:18.885Z,36.00
2019-02-24T00:45:47.948Z,38.83
2019-02-24T00:48:16.948Z,34.60
2019-02-24T00:50:45.884Z,37.87
2019-02-24T00:53:14.909Z,37.63
2019-02-24T00:55:43.927Z,41.37
2019-02-24T00:58:16.267Z,37.10
2019-02-24T01:00:43.566Z,32.07
2019-02-24T01:03:12.476Z,33.83
2019-02-24T01:05:41.416Z,34.87
2019-02-24T01:08:10.787Z,33.13
2019-02-24T01:10:39.698Z,35.97
2019-02-24T01:13:08.621Z,34.77
2019-02-24T01:15:37.587Z,32.80
2019-02-24T01:18:06.627Z,33.40
2019-02-24T01:20:36.075Z,39.47
2019-02-24T01:23:05.112Z,32.77
2019-02-24T01:25:34.067Z,36.37
2019-02-24T01:28:02.959Z,34.10
2019-02-24T01:30:32.051Z,32.50
2019-02-24T01:33:01.008Z,36.63
2019-02-24T01:35:29.952Z,34.53
2019-02-24T01:37:58.990Z,34.77
2019-02-24T01:40:28.000Z,35.40
2019-02-24T01:42:56.932Z,30.57
2019-02-24T01:45:25.911Z,33.93
2019-02-24T01:47:54.839Z,30.63
2019-02-24T01:50:23.819Z,30.00
2019-02-24T01:52:52.830Z,32.87
2019-02-24T01:55:21.751Z,32.33
2019-02-24T01:57:50.715Z,33.37
2019-02-24T02:00:19.699Z,32.00
2019-02-24T02:02:48.626Z,37.27
2019-02-24T02:05:17.596Z,34.07
2019-02-24T02:07:46.629Z,28.10
2019-02-24T02:10:15.752Z,31.90
2019-02-24T02:12:44.694Z,29.30
2019-02-24T02:15:15.441Z,35.40
2019-02-24T02:17:44.422Z,32.73
2019-02-24T02:20:13.520Z,28.60
2019-02-24T02:22:42.489Z,31.87
2019-02-24T02:25:11.543Z,32.90
2019-02-24T02:27:40.514Z,31.37
2019-02-24T02:30:10.093Z,33.20
2019-02-24T02:32:39.078Z,34.90
2019-02-24T02:35:08.262Z,31.13
2019-02-24T02:37:37.208Z,33.17
2019-02-24T02:40:06.862Z,28.37
2019-02-24T02:42:35.903Z,36.47
2019-02-24T02:45:05.214Z,29.33
2019-02-24T02:47:34.148Z,38.57
2019-02-24T02:50:03.091Z,38.38
2019-02-24T02:52:32.091Z,31.73
2019-02-24T02:55:01.064Z,33.03
2019-02-24T02:57:30.131Z,35.00
2019-02-24T02:59:59.066Z,33.53
2019-02-24T03:02:28.023Z,32.67
2019-02-24T03:04:57.049Z,30.20
2019-02-24T03:07:34.975Z,33.70
2019-02-24T03:10:04.229Z,39.00
2019-02-24T03:12:33.303Z,38.50
2019-02-24T03:15:02.259Z,35.90
2019-02-24T03:17:31.229Z,36.27
2019-02-24T03:20:00.348Z,36.60
2019-02-24T03:22:29.319Z,41.70
2019-02-24T03:24:58.255Z,37.13
2019-02-24T03:27:46.475Z,35.80
2019-02-24T03:30:15.618Z,39.37
2019-02-24T03:32:44.734Z,34.27
2019-02-24T03:35:13.768Z,37.03
2019-02-24T03:37:42.750Z,32.13
2019-02-24T03:40:14.897Z,33.87
2019-02-24T03:42:43.872Z,30.60
2019-02-24T03:45:13.003Z,35.23
2019-02-24T03:47:41.975Z,34.60
2019-02-24T03:50:11.020Z,30.90
2019-02-24T03:52:40.036Z,30.87
2019-02-24T03:55:09.068Z,35.13
2019-02-24T03:57:38.358Z,36.67
2019-02-24T04:00:07.619Z,35.50
2019-02-24T04:02:36.765Z,34.73
2019-02-24T04:05:05.933Z,37.97
2019-02-24T04:07:34.865Z,38.63
2019-02-24T04:10:04.241Z,36.50
2019-02-24T04:12:33.414Z,35.53
2019-02-24T04:15:02.456Z,34.03
2019-02-24T04:17:31.393Z,35.13
2019-02-24T04:20:00.468Z,33.70
2019-02-24T04:22:29.453Z,35.43
2019-02-24T04:24:58.402Z,35.93
2019-02-24T04:27:27.395Z,34.17
2019-02-24T04:29:57.163Z,32.03
2019-02-24T04:32:26.123Z,34.40
2019-02-24T04:34:55.103Z,37.07
2019-02-24T04:37:24.085Z,32.37
2019-02-24T04:39:53.009Z,35.07
2019-02-24T04:42:21.984Z,40.83
2019-02-24T04:44:50.993Z,39.27
2019-02-24T04:47:19.912Z,36.30
2019-02-24T04:49:49.682Z,37.10
2019-02-24T04:52:18.927Z,43.13
2019-02-24T04:54:47.878Z,38.30
2019-02-24T04:57:17.002Z,37.93
2019-02-24T04:59:46.070Z,37.20
2019-02-24T05:02:15.144Z,38.37
2019-02-24T05:04:44.108Z,53.97
2019-02-24T05:07:13.149Z,53.60
2019-02-24T05:09:42.157Z,53.20
2019-02-24T05:12:11.237Z,47.67
2019-02-24T05:14:40.277Z,41.80
2019-02-24T05:17:09.237Z,36.90
2019-02-24T05:19:38.217Z,36.97
2019-02-24T05:22:07.161Z,35.23
2019-02-24T05:24:36.124Z,30.80
2019-02-24T05:27:05.132Z,32.60
2019-02-24T05:29:34.193Z,34.80
2019-02-24T05:32:03.123Z,33.87
2019-02-24T05:34:32.125Z,39.00
2019-02-24T05:37:01.270Z,39.20
2019-02-24T05:39:30.211Z,34.17
2019-02-24T05:41:59.191Z,45.90
2019-02-24T05:44:28.141Z,43.63
2019-02-24T05:46:57.196Z,41.83
2019-02-24T05:49:26.218Z,43.73
2019-02-24T05:51:55.176Z,39.80
2019-02-24T05:54:24.129Z,39.00
2019-02-24T05:56:53.068Z,38.87
2019-02-24T05:59:21.980Z,35.80
2019-02-24T06:01:50.880Z,34.07
2019-02-24T06:04:19.916Z,35.10
2019-02-24T06:06:48.859Z,37.00
2019-02-24T06:09:17.844Z,40.33
2019-02-24T06:11:46.835Z,37.33
2019-02-24T06:14:15.795Z,35.63
2019-02-24T06:16:44.765Z,35.07
2019-02-24T06:19:13.719Z,39.17
2019-02-24T06:21:42.697Z,35.67
2019-02-24T06:24:11.647Z,40.13
2019-02-24T06:26:40.660Z,32.97
2019-02-24T06:29:09.760Z,35.23
2019-02-24T06:31:38.691Z,35.27
2019-02-24T06:34:07.742Z,40.50
2019-02-24T06:36:36.679Z,33.37
2019-02-24T06:39:07.791Z,42.87
2019-02-24T06:41:36.763Z,66.50
2019-02-24T06:44:05.779Z,46.97
2019-02-24T06:46:34.720Z,39.60
2019-02-24T06:49:03.890Z,40.43
2019-02-24T06:51:32.844Z,33.70
2019-02-24T06:54:01.859Z,39.07
2019-02-24T06:56:30.868Z,39.07
2019-02-24T06:58:59.777Z,31.97
2019-02-24T07:01:28.701Z,31.30
2019-02-24T07:03:57.689Z,33.10
2019-02-24T07:06:26.641Z,33.07
2019-02-24T07:08:55.731Z,40.57
2019-02-24T07:11:24.699Z,34.00
2019-02-24T07:13:53.716Z,32.53
2019-02-24T07:16:22.690Z,32.03
2019-02-24T07:18:51.615Z,33.97
2019-02-24T07:21:20.621Z,28.70
2019-02-24T07:23:49.569Z,30.50
2019-02-24T07:26:18.571Z,34.07
2019-02-24T07:28:47.537Z,27.80
2019-02-24T07:31:16.433Z,35.20
2019-02-24T07:33:45.378Z,29.17
2019-02-24T07:36:14.304Z,31.20
2019-02-24T07:38:43.367Z,31.27
2019-02-24T07:41:12.446Z,33.37
2019-02-24T07:43:41.452Z,35.10
2019-02-24T07:46:10.400Z,35.20
2019-02-24T07:48:39.436Z,33.27
2019-02-24T07:51:08.386Z,34.20
2019-02-24T07:53:37.309Z,30.03
2019-02-24T07:56:06.321Z,34.87
2019-02-24T07:58:35.352Z,31.80
2019-02-24T08:01:04.458Z,31.20
2019-02-24T08:03:33.475Z,35.47
2019-02-24T08:06:02.464Z,32.93
2019-02-24T08:08:31.511Z,37.93
2019-02-24T08:11:00.475Z,31.27
2019-02-24T08:13:29.548Z,30.50
2019-02-24T08:15:58.479Z,29.80
2019-02-24T08:18:27.445Z,37.63
2019-02-24T08:20:56.489Z,29.60
2019-02-24T08:23:25.560Z,31.47
2019-02-24T08:25:54.557Z,34.27
2019-02-24T08:28:23.499Z,34.77
2019-02-24T08:30:52.523Z,30.37
2019-02-24T08:33:21.578Z,30.90
2019-02-24T08:35:50.502Z,30.67
2019-02-24T08:38:19.592Z,36.23
2019-02-24T08:40:48.801Z,25.10
2019-02-24T08:43:17.758Z,32.33
2019-02-24T08:45:46.768Z,30.20
2019-02-24T08:48:15.728Z,31.67
2019-02-24T08:50:44.676Z,27.50
2019-02-24T08:53:13.630Z,29.57
2019-02-24T08:55:42.568Z,31.80
2019-02-24T08:58:11.575Z,41.10
2019-02-24T09:00:40.521Z,34.27
2019-02-24T09:03:09.601Z,33.87
2019-02-24T09:05:38.541Z,28.80
2019-02-24T09:08:07.504Z,30.83
2019-02-24T09:10:36.576Z,63.03
2019-02-24T09:13:05.504Z,31.27
2019-02-24T09:15:34.427Z,48.13
2019-02-24T09:18:03.416Z,40.23
2019-02-24T09:20:32.352Z,30.33
2019-02-24T09:23:01.291Z,60.20
2019-02-24T09:25:30.468Z,32.63
2019-02-24T09:27:59.470Z,35.23
2019-02-24T09:30:28.489Z,30.00
2019-02-24T09:32:57.463Z,28.63
2019-02-24T09:35:26.450Z,25.87
2019-02-24T09:37:55.423Z,23.33
2019-02-24T09:40:24.432Z,27.80
2019-02-24T09:42:53.431Z,25.33
2019-02-24T09:45:22.369Z,23.90
2019-02-24T09:47:51.365Z,23.37
2019-02-24T09:50:20.432Z,28.33
2019-02-24T09:52:49.389Z,21.73
2019-02-24T09:55:18.478Z,24.63
2019-02-24T09:57:47.591Z,20.63
2019-02-24T10:00:16.738Z,20.97
2019-02-24T10:02:45.748Z,25.83
2019-02-24T10:05:14.872Z,24.03
2019-02-24T10:07:43.925Z,20.70
2019-02-24T10:10:13.197Z,26.03
2019-02-24T10:12:42.252Z,21.97
2019-02-24T10:15:11.555Z,23.07
2019-02-24T10:17:40.591Z,20.50
2019-02-24T10:20:28.726Z,22.10
2019-02-24T10:22:57.839Z,19.33
2019-02-24T10:25:26.911Z,22.43
2019-02-24T10:27:55.959Z,23.93
2019-02-24T10:30:25.139Z,26.33
2019-02-24T10:32:54.077Z,27.57
2019-02-24T10:35:23.050Z,41.30
2019-02-24T10:37:52.375Z,24.33
2019-02-24T10:40:21.444Z,36.10
2019-02-24T10:42:50.376Z,32.73
2019-02-24T10:45:19.615Z,28.43
2019-02-24T10:47:50.817Z,24.60
2019-02-24T10:50:19.951Z,31.93
2019-02-24T10:52:48.907Z,28.23
2019-02-24T10:55:18.071Z,22.47
2019-02-24T10:57:47.096Z,32.70
2019-02-24T11:00:16.830Z,31.67
2019-02-24T11:02:45.764Z,34.63
2019-02-24T11:05:15.847Z,25.57
2019-02-24T11:07:45.066Z,24.77
2019-02-24T11:10:14.208Z,30.87
2019-02-24T11:12:43.285Z,22.37
2019-02-24T11:15:12.392Z,30.47
2019-02-24T11:17:41.648Z,22.13
2019-02-24T11:20:11.166Z,21.00
2019-02-24T11:22:40.228Z,20.70
2019-02-24T11:25:09.869Z,25.47
2019-02-24T11:27:38.967Z,26.30
2019-02-24T11:30:08.610Z,29.97
2019-02-24T11:32:37.735Z,50.83
2019-02-24T11:35:07.060Z,21.33
2019-02-24T11:37:36.341Z,45.33
2019-02-24T11:40:06.490Z,20.67
2019-02-24T11:42:35.888Z,21.17
2019-02-24T11:45:55.905Z,23.20
2019-02-24T11:48:25.291Z,39.37
2019-02-24T11:51:06.636Z,18.30
2019-02-24T11:53:35.754Z,34.07
2019-02-24T11:56:04.792Z,22.17
2019-02-24T11:58:33.735Z,27.57
2019-02-24T12:01:02.813Z,21.23
2019-02-24T12:03:31.746Z,15.87
2019-02-24T12:06:00.726Z,16.23
2019-02-24T12:08:29.661Z,15.63
2019-02-24T12:10:58.572Z,16.43
2019-02-24T12:13:27.548Z,14.90
2019-02-24T12:15:56.468Z,14.80
2019-02-24T12:18:25.450Z,15.30
2019-02-24T12:20:54.432Z,12.23
2019-02-24T12:23:23.415Z,13.70
2019-02-24T12:25:52.493Z,15.37
2019-02-24T12:28:21.469Z,16.37
2019-02-24T12:30:50.593Z,14.60
2019-02-24T12:33:19.562Z,15.27
2019-02-24T12:35:48.595Z,13.03
2019-02-24T12:38:17.606Z,18.03
2019-02-24T12:40:46.667Z,13.40
2019-02-24T12:43:15.759Z,13.93
2019-02-24T12:45:44.660Z,14.90
2019-02-24T12:48:13.640Z,14.97
2019-02-24T12:50:42.696Z,12.77
2019-02-24T12:53:11.733Z,12.73
2019-02-24T12:55:40.688Z,14.43
2019-02-24T12:58:09.717Z,13.37
2019-02-24T13:00:38.889Z,14.20
2019-02-24T13:03:07.930Z,15.60
2019-02-24T13:05:36.967Z,12.73
2019-02-24T13:08:06.047Z,20.43
2019-02-24T13:10:35.192Z,12.77
2019-02-24T13:13:04.312Z,13.27
2019-02-24T13:15:33.269Z,18.63
2019-02-24T13:18:02.365Z,16.70
2019-02-24T13:20:31.751Z,15.30
2019-02-24T13:23:00.824Z,20.87
2019-02-24T13:25:29.958Z,25.87
2019-02-24T13:27:59.098Z,19.23
2019-02-24T13:30:28.189Z,34.50
2019-02-24T13:32:57.281Z,15.77
2019-02-24T13:35:26.254Z,11.93
2019-02-24T13:37:55.373Z,22.20
2019-02-24T13:40:24.367Z,13.73
2019-02-24T13:42:53.359Z,12.60
2019-02-24T13:45:22.591Z,12.63
2019-02-24T13:47:52.431Z,43.03
2019-02-24T13:50:21.537Z,15.87
2019-02-24T13:52:50.568Z,14.70
2019-02-24T13:55:19.560Z,16.17
2019-02-24T13:57:48.543Z,15.80
2019-02-24T14:00:17.704Z,16.27
2019-02-24T14:02:46.688Z,18.97
2019-02-24T14:05:15.722Z,13.60
2019-02-24T14:07:44.717Z,16.63
2019-02-24T14:10:14.023Z,14.20
2019-02-24T14:12:43.134Z,12.80
2019-02-24T14:15:12.395Z,14.10
2019-02-24T14:17:41.371Z,11.97
2019-02-24T14:20:11.393Z,13.70
2019-02-24T14:22:40.563Z,21.27
2019-02-24T14:25:09.748Z,14.03
2019-02-24T14:27:38.796Z,14.73
2019-02-24T14:30:09.963Z,12.90
2019-02-24T14:32:38.900Z,14.37
2019-02-24T14:35:09.631Z,14.80
2019-02-24T14:37:38.892Z,16.10
2019-02-24T14:40:08.240Z,19.07
2019-02-24T14:42:37.343Z,11.63
2019-02-24T14:45:08.504Z,10.73
2019-02-24T14:47:37.444Z,13.13
2019-02-24T14:50:07.049Z,11.20
2019-02-24T14:52:35.997Z,12.37
2019-02-24T14:55:05.283Z,13.23
2019-02-24T14:57:34.228Z,11.53
2019-02-24T15:00:03.321Z,13.77
2019-02-24T15:02:32.411Z,14.13
2019-02-24T15:05:13.063Z,12.77
2019-02-24T15:07:33.340Z,12.20
2019-02-24T15:10:02.272Z,15.30
2019-02-24T15:12:31.224Z,14.10
2019-02-24T15:15:00.285Z,16.67
2019-02-24T15:17:29.286Z,15.97
2019-02-24T15:19:58.337Z,14.73
2019-02-24T15:22:27.383Z,13.90
2019-02-24T15:24:56.283Z,13.37
2019-02-24T15:27:25.311Z,14.70
2019-02-24T15:29:54.331Z,13.60
2019-02-24T15:32:23.323Z,16.67
2019-02-24T15:34:52.317Z,17.00
2019-02-24T15:37:21.239Z,12.60
2019-02-24T15:39:50.200Z,17.63
2019-02-24T15:42:19.379Z,18.33
2019-02-24T15:44:48.340Z,19.37
2019-02-24T15:47:17.854Z,18.33
2019-02-24T15:49:46.901Z,16.77
2019-02-24T15:52:16.038Z,15.93
2019-02-24T15:55:23.261Z,19.57
2019-02-24T15:57:52.322Z,17.93
2019-02-24T16:00:21.676Z,19.50
2019-02-24T16:02:50.945Z,23.53
2019-02-24T16:05:20.072Z,28.00
2019-02-24T16:07:49.245Z,24.63
2019-02-24T16:10:19.042Z,32.40
2019-02-24T16:12:48.339Z,25.60
2019-02-24T16:15:23.697Z,24.20
2019-02-24T16:17:52.999Z,19.83
2019-02-24T16:20:23.917Z,21.03
2019-02-24T16:22:53.151Z,25.47
2019-02-24T16:25:22.187Z,20.07
2019-02-24T16:27:51.187Z,18.80
2019-02-24T16:30:20.144Z,21.50
2019-02-24T16:32:49.082Z,28.73
2019-02-24T16:35:20.337Z,22.37
2019-02-24T16:37:49.489Z,27.37
2019-02-24T16:40:19.623Z,24.27
2019-02-24T16:42:48.651Z,34.77
2019-02-24T16:45:17.846Z,46.13
2019-02-24T16:47:46.967Z,29.73
2019-02-24T16:50:16.552Z,39.00
2019-02-24T16:52:45.702Z,36.73
2019-02-24T16:55:15.358Z,42.03
2019-02-24T16:57:44.547Z,45.67
2019-02-24T17:00:18.140Z,30.97
2019-02-24T17:02:47.498Z,34.27
2019-02-24T17:05:16.628Z,37.93
2019-02-24T17:07:51.511Z,22.13
2019-02-24T17:10:25.022Z,23.90
2019-02-24T17:12:54.276Z,23.07
2019-02-24T17:15:24.166Z,21.83
2019-02-24T17:17:53.407Z,22.37
2019-02-24T17:20:22.638Z,20.93
2019-02-24T17:22:51.724Z,22.73
2019-02-24T17:25:20.951Z,21.47
2019-02-24T17:27:50.247Z,21.47
2019-02-24T17:30:19.431Z,21.47
2019-02-24T17:32:48.779Z,21.20
2019-02-24T17:35:17.793Z,23.57
2019-02-24T17:37:46.938Z,25.13
2019-02-24T17:40:16.070Z,23.07
2019-02-24T17:42:45.408Z,21.43
2019-02-24T17:45:17.135Z,23.83
2019-02-24T17:47:46.908Z,22.70
2019-02-24T17:50:16.696Z,21.13
2019-02-24T17:52:46.074Z,22.63
2019-02-24T17:55:15.266Z,21.43
2019-02-24T17:57:44.515Z,24.60
2019-02-24T18:00:16.818Z,23.37
2019-02-24T18:02:46.081Z,25.37
2019-02-24T18:05:55.790Z,22.23
2019-02-24T18:08:28.167Z,24.87
2019-02-24T18:10:56.201Z,22.07
2019-02-24T18:13:28.747Z,21.80
2019-02-24T18:15:58.104Z,27.17
2019-02-24T18:18:27.768Z,33.70
2019-02-24T18:20:56.920Z,24.67
2019-02-24T18:23:26.122Z,28.17
2019-02-24T18:25:56.597Z,31.23
2019-02-24T18:28:25.629Z,29.33
2019-02-24T18:30:54.792Z,24.97
2019-02-24T18:33:23.891Z,27.60
2019-02-24T18:35:52.947Z,27.67
2019-02-24T18:38:28.633Z,28.03
2019-02-24T18:40:59.159Z,28.33
2019-02-24T18:44:06.645Z,29.07
2019-02-24T18:46:36.732Z,32.73
2019-02-24T18:49:06.827Z,30.63
2019-02-24T18:52:06.822Z,32.67
2019-02-24T18:54:39.183Z,27.37
2019-02-24T18:57:09.127Z,28.87
2019-02-24T18:59:38.216Z,28.73
2019-02-24T19:02:07.431Z,30.40
2019-02-24T19:08:15.359Z,32.10
2019-02-24T19:11:35.602Z,33.93
2019-02-24T19:14:04.809Z,32.13
2019-02-24T19:16:33.854Z,39.53
2019-02-24T19:19:02.865Z,34.53
2019-02-24T19:22:17.835Z,30.83
2019-02-24T19:24:46.569Z,37.37
2019-02-24T19:27:15.579Z,32.87
2019-02-24T19:29:44.763Z,36.60
2019-02-24T19:32:16.872Z,36.00
2019-02-24T19:34:46.729Z,34.33
2019-02-24T19:37:15.711Z,34.10
2019-02-24T19:39:45.841Z,36.10
2019-02-24T19:42:15.884Z,36.37
2019-02-24T19:44:45.880Z,34.90
2019-02-24T19:47:14.847Z,31.63
2019-02-24T19:49:43.864Z,35.93
2019-02-24T19:52:12.850Z,36.90
2019-02-24T19:55:01.502Z,40.77
2019-02-24T19:57:45.913Z,36.77
2019-02-24T20:00:19.732Z,40.50
2019-02-24T20:02:50.053Z,38.13
2019-02-24T20:05:20.664Z,42.53
2019-02-24T20:07:49.827Z,39.70
2019-02-24T20:14:32.874Z,46.53
2019-02-24T20:17:01.919Z,41.67
2019-02-24T20:19:30.897Z,46.13
2019-02-24T20:22:00.048Z,51.73
2019-02-24T20:24:33.118Z,47.47
2019-02-24T20:26:59.827Z,59.00
2019-02-24T20:29:28.804Z,53.20
2019-02-24T20:31:57.944Z,48.83
2019-02-24T20:34:28.144Z,50.90
2019-02-24T20:36:57.195Z,48.17
2019-02-24T20:39:26.240Z,52.33
2019-02-24T20:41:55.321Z,49.10
2019-02-24T20:44:24.354Z,47.07
2019-02-24T20:46:53.374Z,47.13
2019-02-24T20:49:22.351Z,46.37
2019-02-24T20:51:51.546Z,45.53
2019-02-24T20:54:21.011Z,56.03
2019-02-24T20:56:50.025Z,45.07
2019-02-24T20:59:18.974Z,51.20
2019-02-24T21:01:48.040Z,49.67
2019-02-24T21:04:17.042Z,50.23
2019-02-24T21:06:46.052Z,40.10
2019-02-24T21:09:15.155Z,41.57
2019-02-24T21:11:44.257Z,41.33
2019-02-24T21:14:13.563Z,40.90
2019-02-24T21:16:42.547Z,36.60
2019-02-24T21:19:11.528Z,43.80
2019-02-24T21:21:40.533Z,38.23
2019-02-24T21:24:09.498Z,39.13
2019-02-24T21:26:38.445Z,37.67
2019-02-24T21:29:07.590Z,49.90
2019-02-24T21:31:36.508Z,49.70
2019-02-24T21:34:05.644Z,52.37
2019-02-24T21:36:34.654Z,49.13
2019-02-24T21:39:04.152Z,46.77
2019-02-24T21:41:33.155Z,50.20
2019-02-24T21:44:02.241Z,51.47
2019-02-24T21:46:31.242Z,51.70
2019-02-24T21:49:00.239Z,55.30
2019-02-24T21:51:29.312Z,54.03
2019-02-24T21:53:58.247Z,53.10
2019-02-24T21:56:27.174Z,49.37
2019-02-24T21:58:56.171Z,51.40
2019-02-24T22:01:25.200Z,58.13
2019-02-24T22:03:54.164Z,53.93
2019-02-24T22:06:23.220Z,56.03
2019-02-24T22:08:52.167Z,56.40
2019-02-24T22:11:21.193Z,57.27
2019-02-24T22:13:50.215Z,62.50
2019-02-24T22:16:19.558Z,56.87
2019-02-24T22:18:48.754Z,63.47
2019-02-24T22:21:17.759Z,59.30
2019-02-24T22:23:47.193Z,62.53
2019-02-24T22:26:16.188Z,62.30
2019-02-24T22:28:45.303Z,68.77
2019-02-24T22:31:14.244Z,68.40
2019-02-24T22:33:43.816Z,65.70
2019-02-24T22:36:12.804Z,67.93
2019-02-24T22:38:41.736Z,67.63
2019-02-24T22:41:12.062Z,61.53
2019-02-24T22:43:41.088Z,58.30
2019-02-24T22:46:10.047Z,58.70
2019-02-24T22:48:39.032Z,52.33
2019-02-24T22:51:08.118Z,51.87
2019-02-24T22:53:37.117Z,56.37
2019-02-24T22:56:08.534Z,48.77
2019-02-24T22:58:37.523Z,51.90
2019-02-24T23:01:14.305Z,56.90
2019-02-24T23:03:45.627Z,51.60
2019-02-24T23:06:14.681Z,51.53
2019-02-24T23:08:44.040Z,53.47
2019-02-24T23:11:13.019Z,52.97
2019-02-24T23:13:42.046Z,62.83
2019-02-24T23:16:11.036Z,53.27
2019-02-24T23:18:40.081Z,54.97
2019-02-24T23:21:09.012Z,53.63
2019-02-24T23:23:37.967Z,51.70
2019-02-24T23:26:07.007Z,48.47
2019-02-24T23:28:35.969Z,51.47
2019-02-24T23:31:05.097Z,51.67
2019-02-24T23:33:34.103Z,57.57
2019-02-24T23:36:03.131Z,52.83
2019-02-24T23:38:32.065Z,51.27
2019-02-24T23:41:01.067Z,53.63
2019-02-24T23:43:30.759Z,48.20
2019-02-24T23:45:59.788Z,54.40
2019-02-24T23:48:28.776Z,52.53
2019-02-24T23:50:57.733Z,52.47
2019-02-24T23:53:26.725Z,48.50
2019-02-24T23:55:55.799Z,50.47
2019-02-24T23:58:24.742Z,54.80
